sensor_id;sensor_type;location;lat;lon;timestamp;temperature;humidity
45104;DHT22;30865;51.288;4.572;2023-04-01T00:00:52;9.30;99.90
45104;DHT22;30865;51.288;4.572;2023-04-01T00:03:18;9.30;99.90
45104;DHT22;30865;51.288;4.572;2023-04-01T00:05:45;9.30;99.90
45104;DHT22;30865;51.288;4.572;2023-04-01T00:08:10;9.30;99.90
45104;DHT22;30865;51.288;4.572;2023-04-01T00:10:36;9.30;99.90
45104;DHT22;30865;51.288;4.572;2023-04-01T00:13:02;9.30;99.90
45104;DHT22;30865;51.288;4.572;2023-04-01T00:15:28;9.40;99.90
45104;DHT22;30865;51.288;4.572;2023-04-01T00:17:53;9.40;99.90
45104;DHT22;30865;51.288;4.572;2023-04-01T00:20:19;9.40;99.90
45104;DHT22;30865;51.288;4.572;2023-04-01T00:22:45;9.40;99.90
45104;DHT22;30865;51.288;4.572;2023-04-01T00:25:10;9.40;99.90
45104;DHT22;30865;51.288;4.572;2023-04-01T00:27:36;9.40;99.90
45104;DHT22;30865;51.288;4.572;2023-04-01T00:30:03;9.40;99.90
45104;DHT22;30865;51.288;4.572;2023-04-01T00:32:28;9.40;99.90
45104;DHT22;30865;51.288;4.572;2023-04-01T00:34:55;9.40;99.90
45104;DHT22;30865;51.288;4.572;2023-04-01T00:37:21;9.40;99.90
45104;DHT22;30865;51.288;4.572;2023-04-01T00:39:48;9.40;99.90
45104;DHT22;30865;51.288;4.572;2023-04-01T00:42:13;9.30;99.90
45104;DHT22;30865;51.288;4.572;2023-04-01T00:44:40;9.40;99.90
45104;DHT22;30865;51.288;4.572;2023-04-01T00:47:06;9.40;99.90
45104;DHT22;30865;51.288;4.572;2023-04-01T00:49:34;9.40;99.90
45104;DHT22;30865;51.288;4.572;2023-04-01T00:52:03;9.40;99.90
45104;DHT22;30865;51.288;4.572;2023-04-01T00:54:31;9.40;99.90
45104;DHT22;30865;51.288;4.572;2023-04-01T00:57:04;9.40;99.90
45104;DHT22;30865;51.288;4.572;2023-04-01T00:59:37;9.50;99.90
45104;DHT22;30865;51.288;4.572;2023-04-01T01:02:06;9.40;99.90
45104;DHT22;30865;51.288;4.572;2023-04-01T01:04:34;9.50;99.90
45104;DHT22;30865;51.288;4.572;2023-04-01T01:07:26;9.50;99.90
45104;DHT22;30865;51.288;4.572;2023-04-01T01:10:17;9.50;99.90
45104;DHT22;30865;51.288;4.572;2023-04-01T01:15:42;9.50;99.90
45104;DHT22;30865;51.288;4.572;2023-04-01T01:25:59;9.40;99.90
45104;DHT22;30865;51.288;4.572;2023-04-01T01:29:06;9.50;99.90
45104;DHT22;30865;51.288;4.572;2023-04-01T01:37:16;9.50;99.90
45104;DHT22;30865;51.288;4.572;2023-04-01T01:39:44;9.50;99.90
45104;DHT22;30865;51.288;4.572;2023-04-01T01:42:15;9.50;99.90
45104;DHT22;30865;51.288;4.572;2023-04-01T01:44:44;9.60;99.90
45104;DHT22;30865;51.288;4.572;2023-04-01T01:47:11;9.50;99.90
45104;DHT22;30865;51.288;4.572;2023-04-01T01:49:39;9.50;99.90
45104;DHT22;30865;51.288;4.572;2023-04-01T01:52:06;9.50;99.90
45104;DHT22;30865;51.288;4.572;2023-04-01T01:54:31;9.50;99.90
45104;DHT22;30865;51.288;4.572;2023-04-01T01:57:05;9.50;99.90
45104;DHT22;30865;51.288;4.572;2023-04-01T01:59:33;9.50;99.90
45104;DHT22;30865;51.288;4.572;2023-04-01T02:02:00;9.50;99.90
45104;DHT22;30865;51.288;4.572;2023-04-01T02:04:33;9.40;99.90
45104;DHT22;30865;51.288;4.572;2023-04-01T02:07:03;9.30;99.90
45104;DHT22;30865;51.288;4.572;2023-04-01T02:09:30;9.30;99.90
45104;DHT22;30865;51.288;4.572;2023-04-01T02:12:02;9.40;99.90
45104;DHT22;30865;51.288;4.572;2023-04-01T02:14:39;9.30;99.90
45104;DHT22;30865;51.288;4.572;2023-04-01T02:17:10;9.30;99.90
45104;DHT22;30865;51.288;4.572;2023-04-01T02:19:46;9.30;99.90
45104;DHT22;30865;51.288;4.572;2023-04-01T02:22:16;9.20;99.90
45104;DHT22;30865;51.288;4.572;2023-04-01T02:24:43;9.20;99.90
45104;DHT22;30865;51.288;4.572;2023-04-01T02:27:10;9.20;99.90
45104;DHT22;30865;51.288;4.572;2023-04-01T02:29:37;9.30;99.90
45104;DHT22;30865;51.288;4.572;2023-04-01T02:32:04;9.30;99.90
45104;DHT22;30865;51.288;4.572;2023-04-01T02:34:31;9.30;99.90
45104;DHT22;30865;51.288;4.572;2023-04-01T02:36:56;9.30;99.90
45104;DHT22;30865;51.288;4.572;2023-04-01T02:39:22;9.30;99.90
45104;DHT22;30865;51.288;4.572;2023-04-01T02:41:48;9.30;99.90
45104;DHT22;30865;51.288;4.572;2023-04-01T02:44:14;9.20;99.90
45104;DHT22;30865;51.288;4.572;2023-04-01T02:46:40;9.20;99.90
45104;DHT22;30865;51.288;4.572;2023-04-01T02:49:06;9.10;99.90
45104;DHT22;30865;51.288;4.572;2023-04-01T02:51:32;9.10;99.90
45104;DHT22;30865;51.288;4.572;2023-04-01T02:53:58;9.00;99.90
45104;DHT22;30865;51.288;4.572;2023-04-01T02:56:23;9.00;99.90
45104;DHT22;30865;51.288;4.572;2023-04-01T02:58:49;9.00;99.90
45104;DHT22;30865;51.288;4.572;2023-04-01T03:07:58;9.00;99.90
45104;DHT22;30865;51.288;4.572;2023-04-01T03:10:24;9.00;99.90
45104;DHT22;30865;51.288;4.572;2023-04-01T03:12:49;9.00;99.90
45104;DHT22;30865;51.288;4.572;2023-04-01T03:15:15;9.00;99.90
45104;DHT22;30865;51.288;4.572;2023-04-01T03:17:41;9.00;99.90
45104;DHT22;30865;51.288;4.572;2023-04-01T03:20:08;9.00;99.90
45104;DHT22;30865;51.288;4.572;2023-04-01T03:22:34;8.90;99.90
45104;DHT22;30865;51.288;4.572;2023-04-01T03:25:01;8.90;99.90
45104;DHT22;30865;51.288;4.572;2023-04-01T03:27:26;8.90;99.90
45104;DHT22;30865;51.288;4.572;2023-04-01T03:29:52;8.90;99.90
45104;DHT22;30865;51.288;4.572;2023-04-01T03:32:17;8.80;99.90
45104;DHT22;30865;51.288;4.572;2023-04-01T03:34:43;8.80;99.90
45104;DHT22;30865;51.288;4.572;2023-04-01T03:37:08;8.80;99.90
45104;DHT22;30865;51.288;4.572;2023-04-01T03:39:34;8.90;99.90
45104;DHT22;30865;51.288;4.572;2023-04-01T03:42:00;8.90;99.90
45104;DHT22;30865;51.288;4.572;2023-04-01T03:44:25;8.90;99.90
45104;DHT22;30865;51.288;4.572;2023-04-01T03:46:51;9.00;99.90
45104;DHT22;30865;51.288;4.572;2023-04-01T03:49:17;9.00;99.90
45104;DHT22;30865;51.288;4.572;2023-04-01T03:51:43;9.00;99.90
45104;DHT22;30865;51.288;4.572;2023-04-01T03:54:10;9.00;99.90
45104;DHT22;30865;51.288;4.572;2023-04-01T03:56:36;9.00;99.90
45104;DHT22;30865;51.288;4.572;2023-04-01T03:59:03;9.00;99.90
45104;DHT22;30865;51.288;4.572;2023-04-01T04:01:29;9.00;99.90
45104;DHT22;30865;51.288;4.572;2023-04-01T04:03:55;9.00;99.90
45104;DHT22;30865;51.288;4.572;2023-04-01T04:06:21;8.90;99.90
45104;DHT22;30865;51.288;4.572;2023-04-01T04:08:47;8.80;99.90
45104;DHT22;30865;51.288;4.572;2023-04-01T04:11:13;8.70;99.90
45104;DHT22;30865;51.288;4.572;2023-04-01T04:13:38;8.70;99.90
45104;DHT22;30865;51.288;4.572;2023-04-01T04:16:04;8.60;99.90
45104;DHT22;30865;51.288;4.572;2023-04-01T04:18:30;8.60;99.90
45104;DHT22;30865;51.288;4.572;2023-04-01T04:20:56;8.60;99.90
45104;DHT22;30865;51.288;4.572;2023-04-01T04:23:21;8.60;99.90
45104;DHT22;30865;51.288;4.572;2023-04-01T04:25:58;8.60;99.90
45104;DHT22;30865;51.288;4.572;2023-04-01T04:28:25;8.60;99.90
45104;DHT22;30865;51.288;4.572;2023-04-01T04:30:51;8.50;99.90
45104;DHT22;30865;51.288;4.572;2023-04-01T04:33:17;8.40;99.90
45104;DHT22;30865;51.288;4.572;2023-04-01T04:35:42;8.40;99.90
45104;DHT22;30865;51.288;4.572;2023-04-01T04:38:08;8.50;99.90
45104;DHT22;30865;51.288;4.572;2023-04-01T04:40:39;8.40;99.90
45104;DHT22;30865;51.288;4.572;2023-04-01T04:43:05;8.40;99.90
45104;DHT22;30865;51.288;4.572;2023-04-01T04:45:30;8.30;99.90
45104;DHT22;30865;51.288;4.572;2023-04-01T04:47:56;8.30;99.90
45104;DHT22;30865;51.288;4.572;2023-04-01T04:50:23;8.30;99.90
45104;DHT22;30865;51.288;4.572;2023-04-01T04:52:48;8.30;99.90
45104;DHT22;30865;51.288;4.572;2023-04-01T04:55:14;8.30;99.90
45104;DHT22;30865;51.288;4.572;2023-04-01T04:57:40;8.40;99.90
45104;DHT22;30865;51.288;4.572;2023-04-01T05:00:06;8.40;99.90
45104;DHT22;30865;51.288;4.572;2023-04-01T05:02:32;8.40;99.90
45104;DHT22;30865;51.288;4.572;2023-04-01T05:04:58;8.40;99.90
45104;DHT22;30865;51.288;4.572;2023-04-01T05:07:23;8.40;99.90
45104;DHT22;30865;51.288;4.572;2023-04-01T05:09:49;8.40;99.90
45104;DHT22;30865;51.288;4.572;2023-04-01T05:12:15;8.40;99.90
45104;DHT22;30865;51.288;4.572;2023-04-01T05:14:40;8.40;99.90
45104;DHT22;30865;51.288;4.572;2023-04-01T05:17:10;8.40;99.90
45104;DHT22;30865;51.288;4.572;2023-04-01T05:19:36;8.50;99.90
45104;DHT22;30865;51.288;4.572;2023-04-01T05:22:02;8.60;99.90
45104;DHT22;30865;51.288;4.572;2023-04-01T05:24:27;8.50;99.90
45104;DHT22;30865;51.288;4.572;2023-04-01T05:26:53;8.60;99.90
45104;DHT22;30865;51.288;4.572;2023-04-01T05:29:18;8.60;99.90
45104;DHT22;30865;51.288;4.572;2023-04-01T05:31:46;8.60;99.90
45104;DHT22;30865;51.288;4.572;2023-04-01T05:34:13;8.70;99.90
45104;DHT22;30865;51.288;4.572;2023-04-01T05:36:38;8.70;99.90
45104;DHT22;30865;51.288;4.572;2023-04-01T05:39:04;8.70;99.90
45104;DHT22;30865;51.288;4.572;2023-04-01T05:41:29;8.70;99.90
45104;DHT22;30865;51.288;4.572;2023-04-01T05:43:55;8.80;99.90
45104;DHT22;30865;51.288;4.572;2023-04-01T05:46:20;8.90;99.90
45104;DHT22;30865;51.288;4.572;2023-04-01T05:48:46;9.00;99.90
45104;DHT22;30865;51.288;4.572;2023-04-01T05:51:15;9.00;99.90
45104;DHT22;30865;51.288;4.572;2023-04-01T05:53:41;9.10;99.90
45104;DHT22;30865;51.288;4.572;2023-04-01T05:56:07;9.10;99.90
45104;DHT22;30865;51.288;4.572;2023-04-01T05:58:35;9.20;99.90
45104;DHT22;30865;51.288;4.572;2023-04-01T06:01:03;9.30;99.90
45104;DHT22;30865;51.288;4.572;2023-04-01T06:03:29;9.30;99.90
45104;DHT22;30865;51.288;4.572;2023-04-01T06:05:55;9.30;99.90
45104;DHT22;30865;51.288;4.572;2023-04-01T06:08:21;9.40;99.90
45104;DHT22;30865;51.288;4.572;2023-04-01T06:11:16;9.50;99.90
45104;DHT22;30865;51.288;4.572;2023-04-01T06:14:18;9.60;99.90
45104;DHT22;30865;51.288;4.572;2023-04-01T06:19:47;9.70;99.90
45104;DHT22;30865;51.288;4.572;2023-04-01T06:22:46;9.80;99.90
45104;DHT22;30865;51.288;4.572;2023-04-01T06:36:36;10.20;99.90
45104;DHT22;30865;51.288;4.572;2023-04-01T06:42:02;10.30;99.90
45104;DHT22;30865;51.288;4.572;2023-04-01T06:52:23;10.40;99.30
45104;DHT22;30865;51.288;4.572;2023-04-01T06:55:00;10.40;99.80
45104;DHT22;30865;51.288;4.572;2023-04-01T06:57:35;10.50;99.40
45104;DHT22;30865;51.288;4.572;2023-04-01T07:00:39;10.40;99.10
45104;DHT22;30865;51.288;4.572;2023-04-01T07:05:45;10.30;99.40
45104;DHT22;30865;51.288;4.572;2023-04-01T07:08:21;10.40;99.40
45104;DHT22;30865;51.288;4.572;2023-04-01T07:10:58;10.40;99.40
45104;DHT22;30865;51.288;4.572;2023-04-01T07:13:41;10.50;98.90
45104;DHT22;30865;51.288;4.572;2023-04-01T07:16:19;10.50;99.00
45104;DHT22;30865;51.288;4.572;2023-04-01T07:18:54;10.50;99.10
45104;DHT22;30865;51.288;4.572;2023-04-01T07:21:32;10.60;99.00
45104;DHT22;30865;51.288;4.572;2023-04-01T07:24:05;10.50;98.80
45104;DHT22;30865;51.288;4.572;2023-04-01T07:26:32;10.60;99.50
45104;DHT22;30865;51.288;4.572;2023-04-01T07:28:58;10.70;99.40
45104;DHT22;30865;51.288;4.572;2023-04-01T07:34:16;10.70;99.70
45104;DHT22;30865;51.288;4.572;2023-04-01T07:37:12;10.60;99.30
45104;DHT22;30865;51.288;4.572;2023-04-01T07:39:55;10.70;99.70
45104;DHT22;30865;51.288;4.572;2023-04-01T07:42:49;10.60;99.30
45104;DHT22;30865;51.288;4.572;2023-04-01T07:45:33;10.60;99.50
45104;DHT22;30865;51.288;4.572;2023-04-01T07:48:06;10.70;99.70
45104;DHT22;30865;51.288;4.572;2023-04-01T07:53:31;10.70;99.40
45104;DHT22;30865;51.288;4.572;2023-04-01T07:56:07;10.70;99.70
45104;DHT22;30865;51.288;4.572;2023-04-01T08:06:38;10.90;99.10
45104;DHT22;30865;51.288;4.572;2023-04-01T08:12:18;11.00;99.20
45104;DHT22;30865;51.288;4.572;2023-04-01T08:25:39;11.00;99.10
45104;DHT22;30865;51.288;4.572;2023-04-01T08:28:24;11.10;99.50
45104;DHT22;30865;51.288;4.572;2023-04-01T08:31:00;11.10;98.90
45104;DHT22;30865;51.288;4.572;2023-04-01T08:33:30;11.10;99.20
45104;DHT22;30865;51.288;4.572;2023-04-01T08:36:05;11.00;99.10
45104;DHT22;30865;51.288;4.572;2023-04-01T08:49:56;11.40;99.10
45104;DHT22;30865;51.288;4.572;2023-04-01T09:03:41;10.40;99.90
45104;DHT22;30865;51.288;4.572;2023-04-01T09:12:06;10.50;99.90
45104;DHT22;30865;51.288;4.572;2023-04-01T09:20:24;10.40;99.90
45104;DHT22;30865;51.288;4.572;2023-04-01T09:29:05;10.00;99.90
45104;DHT22;30865;51.288;4.572;2023-04-01T09:34:38;10.00;99.90
45104;DHT22;30865;51.288;4.572;2023-04-01T09:37:29;10.20;99.90
45104;DHT22;30865;51.288;4.572;2023-04-01T09:40:18;10.20;99.90
45104;DHT22;30865;51.288;4.572;2023-04-01T09:51:26;9.80;99.90
45104;DHT22;30865;51.288;4.572;2023-04-01T09:54:17;9.80;99.90
45104;DHT22;30865;51.288;4.572;2023-04-01T09:57:09;9.80;99.90
45104;DHT22;30865;51.288;4.572;2023-04-01T10:00:05;9.70;99.90
45104;DHT22;30865;51.288;4.572;2023-04-01T10:08:34;9.80;99.90
45104;DHT22;30865;51.288;4.572;2023-04-01T10:14:18;9.60;99.90
45104;DHT22;30865;51.288;4.572;2023-04-01T10:19:55;9.70;99.90
45104;DHT22;30865;51.288;4.572;2023-04-01T10:28:55;9.90;99.90
45104;DHT22;30865;51.288;4.572;2023-04-01T10:31:35;9.90;99.90
45104;DHT22;30865;51.288;4.572;2023-04-01T10:34:39;10.00;99.90
45104;DHT22;30865;51.288;4.572;2023-04-01T10:37:34;10.00;99.90
45104;DHT22;30865;51.288;4.572;2023-04-01T10:40:34;10.00;99.90
45104;DHT22;30865;51.288;4.572;2023-04-01T10:54:20;10.00;99.90
45104;DHT22;30865;51.288;4.572;2023-04-01T10:57:28;10.00;99.90
45104;DHT22;30865;51.288;4.572;2023-04-01T11:00:20;10.10;99.90
45104;DHT22;30865;51.288;4.572;2023-04-01T11:03:21;10.30;99.90
45104;DHT22;30865;51.288;4.572;2023-04-01T11:06:30;10.40;99.90
45104;DHT22;30865;51.288;4.572;2023-04-01T11:11:59;10.40;99.90
45104;DHT22;30865;51.288;4.572;2023-04-01T11:34:15;11.30;99.90
45104;DHT22;30865;51.288;4.572;2023-04-01T11:36:46;11.30;99.90
45104;DHT22;30865;51.288;4.572;2023-04-01T11:42:25;11.20;99.90
45104;DHT22;30865;51.288;4.572;2023-04-01T11:45:12;11.30;99.90
45104;DHT22;30865;51.288;4.572;2023-04-01T11:50:40;11.40;99.90
45104;DHT22;30865;51.288;4.572;2023-04-01T11:56:49;11.40;99.90
45104;DHT22;30865;51.288;4.572;2023-04-01T11:59:42;11.40;99.90
45104;DHT22;30865;51.288;4.572;2023-04-01T12:02:29;11.40;99.90
45104;DHT22;30865;51.288;4.572;2023-04-01T12:05:28;11.40;99.90
45104;DHT22;30865;51.288;4.572;2023-04-01T12:11:12;11.30;99.90
45104;DHT22;30865;51.288;4.572;2023-04-01T12:22:37;11.20;99.90
45104;DHT22;30865;51.288;4.572;2023-04-01T12:30:48;11.30;99.90
45104;DHT22;30865;51.288;4.572;2023-04-01T12:33:37;11.20;99.90
45104;DHT22;30865;51.288;4.572;2023-04-01T12:36:13;11.00;99.90
45104;DHT22;30865;51.288;4.572;2023-04-01T12:41:37;11.20;99.90
45104;DHT22;30865;51.288;4.572;2023-04-01T12:44:28;11.20;99.90
45104;DHT22;30865;51.288;4.572;2023-04-01T12:47:16;11.30;99.90
45104;DHT22;30865;51.288;4.572;2023-04-01T12:50:13;11.40;99.90
45104;DHT22;30865;51.288;4.572;2023-04-01T12:53:03;11.60;99.90
45104;DHT22;30865;51.288;4.572;2023-04-01T12:55:45;11.70;99.90
45104;DHT22;30865;51.288;4.572;2023-04-01T13:04:44;11.70;99.90
45104;DHT22;30865;51.288;4.572;2023-04-01T13:07:52;11.50;99.90
45104;DHT22;30865;51.288;4.572;2023-04-01T13:18:23;11.80;99.90
45104;DHT22;30865;51.288;4.572;2023-04-01T13:26:34;11.70;98.40
45104;DHT22;30865;51.288;4.572;2023-04-01T13:29:19;11.50;99.90
45104;DHT22;30865;51.288;4.572;2023-04-01T13:31:55;11.70;98.80
45104;DHT22;30865;51.288;4.572;2023-04-01T13:37:08;11.70;99.50
45104;DHT22;30865;51.288;4.572;2023-04-01T13:44:52;11.90;97.40
45104;DHT22;30865;51.288;4.572;2023-04-01T13:47:24;11.80;99.50
45104;DHT22;30865;51.288;4.572;2023-04-01T13:58:58;12.20;95.50
45104;DHT22;30865;51.288;4.572;2023-04-01T14:01:41;12.00;94.70
45104;DHT22;30865;51.288;4.572;2023-04-01T14:07:18;12.60;95.10
45104;DHT22;30865;51.288;4.572;2023-04-01T14:24:52;12.70;93.20
45104;DHT22;30865;51.288;4.572;2023-04-01T14:27:08;12.80;92.90
45104;DHT22;30865;51.288;4.572;2023-04-01T14:32:07;12.70;93.50
45104;DHT22;30865;51.288;4.572;2023-04-01T14:34:59;12.80;93.50
45104;DHT22;30865;51.288;4.572;2023-04-01T14:40:45;12.30;95.30
45104;DHT22;30865;51.288;4.572;2023-04-01T14:48:57;12.20;95.70
45104;DHT22;30865;51.288;4.572;2023-04-01T14:51:36;12.10;95.30
45104;DHT22;30865;51.288;4.572;2023-04-01T14:54:13;12.10;96.10
45104;DHT22;30865;51.288;4.572;2023-04-01T14:56:49;12.00;97.00
45104;DHT22;30865;51.288;4.572;2023-04-01T15:02:16;12.10;96.20
45104;DHT22;30865;51.288;4.572;2023-04-01T15:16:13;12.30;95.10
45104;DHT22;30865;51.288;4.572;2023-04-01T15:19:12;12.30;94.80
45104;DHT22;30865;51.288;4.572;2023-04-01T15:24:21;12.00;94.70
45104;DHT22;30865;51.288;4.572;2023-04-01T15:32:46;12.10;94.70
45104;DHT22;30865;51.288;4.572;2023-04-01T15:35:33;12.10;94.80
45104;DHT22;30865;51.288;4.572;2023-04-01T15:38:36;12.20;95.00
45104;DHT22;30865;51.288;4.572;2023-04-01T15:41:14;12.20;94.80
45104;DHT22;30865;51.288;4.572;2023-04-01T15:43:45;12.20;93.80
45104;DHT22;30865;51.288;4.572;2023-04-01T15:46:44;12.10;94.30
45104;DHT22;30865;51.288;4.572;2023-04-01T15:52:14;12.00;94.70
45104;DHT22;30865;51.288;4.572;2023-04-01T15:55:04;11.90;95.20
45104;DHT22;30865;51.288;4.572;2023-04-01T16:01:01;11.80;95.20
45104;DHT22;30865;51.288;4.572;2023-04-01T16:06:47;11.90;95.00
45104;DHT22;30865;51.288;4.572;2023-04-01T16:09:26;11.80;95.20
45104;DHT22;30865;51.288;4.572;2023-04-01T16:12:18;11.80;95.20
45104;DHT22;30865;51.288;4.572;2023-04-01T16:15:12;11.80;95.20
45104;DHT22;30865;51.288;4.572;2023-04-01T16:18:01;11.90;95.80
45104;DHT22;30865;51.288;4.572;2023-04-01T16:21:00;11.90;95.20
45104;DHT22;30865;51.288;4.572;2023-04-01T16:23:37;11.90;94.40
45104;DHT22;30865;51.288;4.572;2023-04-01T16:26:28;11.80;94.30
45104;DHT22;30865;51.288;4.572;2023-04-01T16:34:34;11.90;94.80
45104;DHT22;30865;51.288;4.572;2023-04-01T16:37:11;11.80;95.20
45104;DHT22;30865;51.288;4.572;2023-04-01T16:39:59;11.70;94.90
45104;DHT22;30865;51.288;4.572;2023-04-01T16:42:48;11.70;95.60
45104;DHT22;30865;51.288;4.572;2023-04-01T16:48:48;11.60;95.40
45104;DHT22;30865;51.288;4.572;2023-04-01T16:51:11;11.60;95.70
45104;DHT22;30865;51.288;4.572;2023-04-01T16:56:40;11.60;95.40
45104;DHT22;30865;51.288;4.572;2023-04-01T16:59:21;11.60;96.20
45104;DHT22;30865;51.288;4.572;2023-04-01T17:02:08;11.70;96.00
45104;DHT22;30865;51.288;4.572;2023-04-01T17:04:45;11.80;96.90
45104;DHT22;30865;51.288;4.572;2023-04-01T17:07:35;11.90;95.50
45104;DHT22;30865;51.288;4.572;2023-04-01T17:13:23;11.80;95.90
45104;DHT22;30865;51.288;4.572;2023-04-01T17:15:59;11.70;95.60
45104;DHT22;30865;51.288;4.572;2023-04-01T17:18:43;11.80;95.90
45104;DHT22;30865;51.288;4.572;2023-04-01T17:21:38;11.80;95.80
45104;DHT22;30865;51.288;4.572;2023-04-01T17:24:24;11.80;96.30
45104;DHT22;30865;51.288;4.572;2023-04-01T17:27:30;11.70;96.50
45104;DHT22;30865;51.288;4.572;2023-04-01T17:30:16;11.60;96.40
45104;DHT22;30865;51.288;4.572;2023-04-01T17:41:07;11.60;96.20
45104;DHT22;30865;51.288;4.572;2023-04-01T17:49:39;11.60;96.50
45104;DHT22;30865;51.288;4.572;2023-04-01T17:52:25;11.50;96.60
45104;DHT22;30865;51.288;4.572;2023-04-01T17:57:44;11.50;96.70
45104;DHT22;30865;51.288;4.572;2023-04-01T18:03:16;11.40;97.40
45104;DHT22;30865;51.288;4.572;2023-04-01T18:11:34;11.30;97.80
45104;DHT22;30865;51.288;4.572;2023-04-01T18:14:37;11.30;97.90
45104;DHT22;30865;51.288;4.572;2023-04-01T18:17:17;11.30;98.30
45104;DHT22;30865;51.288;4.572;2023-04-01T18:22:29;11.20;99.80
45104;DHT22;30865;51.288;4.572;2023-04-01T18:28:11;11.20;99.80
45104;DHT22;30865;51.288;4.572;2023-04-01T18:30:39;11.10;99.90
45104;DHT22;30865;51.288;4.572;2023-04-01T18:33:18;11.10;99.90
45104;DHT22;30865;51.288;4.572;2023-04-01T18:35:51;11.10;99.90
45104;DHT22;30865;51.288;4.572;2023-04-01T18:38:37;11.10;99.90
45104;DHT22;30865;51.288;4.572;2023-04-01T18:41:15;11.00;99.90
45104;DHT22;30865;51.288;4.572;2023-04-01T18:43:54;10.90;99.90
45104;DHT22;30865;51.288;4.572;2023-04-01T18:47:05;10.90;99.90
45104;DHT22;30865;51.288;4.572;2023-04-01T18:50:13;10.80;99.90
45104;DHT22;30865;51.288;4.572;2023-04-01T18:52:43;10.70;99.90
45104;DHT22;30865;51.288;4.572;2023-04-01T18:56:10;10.70;99.90
45104;DHT22;30865;51.288;4.572;2023-04-01T18:58:23;10.70;99.90
45104;DHT22;30865;51.288;4.572;2023-04-01T19:01:23;10.60;99.40
45104;DHT22;30865;51.288;4.572;2023-04-01T19:04:14;10.50;99.70
45104;DHT22;30865;51.288;4.572;2023-04-01T19:09:30;10.30;99.90
45104;DHT22;30865;51.288;4.572;2023-04-01T19:12:26;10.20;99.20
45104;DHT22;30865;51.288;4.572;2023-04-01T19:20:32;10.00;99.50
45104;DHT22;30865;51.288;4.572;2023-04-01T19:25:56;9.80;99.90
45104;DHT22;30865;51.288;4.572;2023-04-01T19:28:36;9.80;99.90
45104;DHT22;30865;51.288;4.572;2023-04-01T19:42:17;9.50;99.90
45104;DHT22;30865;51.288;4.572;2023-04-01T19:48:17;9.60;99.90
45104;DHT22;30865;51.288;4.572;2023-04-01T19:50:50;9.70;99.90
45104;DHT22;30865;51.288;4.572;2023-04-01T19:53:37;9.70;99.90
45104;DHT22;30865;51.288;4.572;2023-04-01T19:56:20;9.80;99.90
45104;DHT22;30865;51.288;4.572;2023-04-01T19:59:15;9.80;99.90
45104;DHT22;30865;51.288;4.572;2023-04-01T20:04:44;9.70;99.90
45104;DHT22;30865;51.288;4.572;2023-04-01T20:07:34;9.80;99.90
45104;DHT22;30865;51.288;4.572;2023-04-01T20:16:06;9.90;99.90
45104;DHT22;30865;51.288;4.572;2023-04-01T20:18:39;9.80;99.90
45104;DHT22;30865;51.288;4.572;2023-04-01T20:23:50;9.80;99.90
45104;DHT22;30865;51.288;4.572;2023-04-01T20:26:39;9.90;99.90
45104;DHT22;30865;51.288;4.572;2023-04-01T20:29:35;9.90;99.90
45104;DHT22;30865;51.288;4.572;2023-04-01T20:40:47;9.90;99.90
45104;DHT22;30865;51.288;4.572;2023-04-01T20:44:09;9.90;99.90
45104;DHT22;30865;51.288;4.572;2023-04-01T20:49:03;9.80;99.90
45104;DHT22;30865;51.288;4.572;2023-04-01T20:51:38;9.80;99.90
45104;DHT22;30865;51.288;4.572;2023-04-01T21:02:16;9.80;99.90
45104;DHT22;30865;51.288;4.572;2023-04-01T21:05:05;9.80;99.90
45104;DHT22;30865;51.288;4.572;2023-04-01T21:10:32;9.80;99.90
45104;DHT22;30865;51.288;4.572;2023-04-01T21:19:14;9.80;99.90
45104;DHT22;30865;51.288;4.572;2023-04-01T21:24:44;9.70;99.90
45104;DHT22;30865;51.288;4.572;2023-04-01T21:33:08;9.60;99.90
45104;DHT22;30865;51.288;4.572;2023-04-01T21:38:57;9.60;99.90
45104;DHT22;30865;51.288;4.572;2023-04-01T21:53:05;9.60;99.90
45104;DHT22;30865;51.288;4.572;2023-04-01T21:55:56;9.60;99.90
45104;DHT22;30865;51.288;4.572;2023-04-01T22:06:54;9.70;99.90
45104;DHT22;30865;51.288;4.572;2023-04-01T22:12:38;9.60;99.90
45104;DHT22;30865;51.288;4.572;2023-04-01T22:18:13;9.50;99.90
45104;DHT22;30865;51.288;4.572;2023-04-01T22:20:53;9.50;99.90
45104;DHT22;30865;51.288;4.572;2023-04-01T22:23:31;9.50;99.90
45104;DHT22;30865;51.288;4.572;2023-04-01T22:31:41;9.50;99.90
45104;DHT22;30865;51.288;4.572;2023-04-01T22:37:16;9.70;99.90
45104;DHT22;30865;51.288;4.572;2023-04-01T22:42:42;9.70;99.90
45104;DHT22;30865;51.288;4.572;2023-04-01T22:48:12;9.70;99.90
45104;DHT22;30865;51.288;4.572;2023-04-01T22:53:17;9.90;99.90
45104;DHT22;30865;51.288;4.572;2023-04-01T22:55:47;9.90;99.90
45104;DHT22;30865;51.288;4.572;2023-04-01T22:58:24;9.90;99.90
45104;DHT22;30865;51.288;4.572;2023-04-01T23:00:55;9.80;99.90
45104;DHT22;30865;51.288;4.572;2023-04-01T23:03:34;9.80;99.90
45104;DHT22;30865;51.288;4.572;2023-04-01T23:06:05;9.80;99.90
45104;DHT22;30865;51.288;4.572;2023-04-01T23:08:39;9.80;99.90
45104;DHT22;30865;51.288;4.572;2023-04-01T23:11:23;9.80;99.90
45104;DHT22;30865;51.288;4.572;2023-04-01T23:36:11;9.60;99.90
45104;DHT22;30865;51.288;4.572;2023-04-01T23:38:41;9.60;99.90
45104;DHT22;30865;51.288;4.572;2023-04-01T23:41:15;9.70;99.90
45104;DHT22;30865;51.288;4.572;2023-04-01T23:43:43;9.60;99.90
45104;DHT22;30865;51.288;4.572;2023-04-01T23:46:09;9.50;99.90
45104;DHT22;30865;51.288;4.572;2023-04-01T23:48:41;9.60;99.90
45104;DHT22;30865;51.288;4.572;2023-04-01T23:51:23;9.50;99.90
45104;DHT22;30865;51.288;4.572;2023-04-01T23:54:03;9.40;99.90
45104;DHT22;30865;51.288;4.572;2023-04-01T23:56:38;9.50;99.90
45104;DHT22;30865;51.288;4.572;2023-04-01T23:59:04;9.50;99.90
